sensor_id;sensor_type;location;lat;lon;timestamp;P1;durP1;ratioP1;P2;durP2;ratioP2
64022;SDS011;50264;52.088;5.296;2022-10-31T00:00:25;16.7;;;7.6;;
64022;SDS011;50264;52.088;5.296;2022-10-31T00:02:01;10.0;;;7.0;;
64022;SDS011;50264;52.088;5.296;2022-10-31T00:05:13;13.8;;;8.2;;
64022;SDS011;50264;52.088;5.296;2022-10-31T00:06:50;13.1;;;8.71;;
64022;SDS011;50264;52.088;5.296;2022-10-31T00:08:26;12.4;;;8.0;;
64022;SDS011;50264;52.088;5.296;2022-10-31T00:11:42;10.0;;;7.5;;
64022;SDS011;50264;52.088;5.296;2022-10-31T00:13:18;17.3;;;8.71;;
64022;SDS011;50264;52.088;5.296;2022-10-31T00:14:54;15.2;;;7.9;;
64022;SDS011;50264;52.088;5.296;2022-10-31T00:18:08;15.5;;;8.1;;
64022;SDS011;50264;52.088;5.296;2022-10-31T00:19:46;18.8;;;8.81;;
64022;SDS011;50264;52.088;5.296;2022-10-31T00:21:22;12.7;;;7.1;;
64022;SDS011;50264;52.088;5.296;2022-10-31T00:23:00;12.2;;;7.5;;
64022;SDS011;50264;52.088;5.296;2022-10-31T00:26:15;11.5;;;7.5;;
64022;SDS011;50264;52.088;5.296;2022-10-31T00:27:54;16.61;;;7.4;;
64022;SDS011;50264;52.088;5.296;2022-10-31T00:29:31;10.4;;;7.2;;
64022;SDS011;50264;52.088;5.296;2022-10-31T00:32:47;11.1;;;6.5;;
64022;SDS011;50264;52.088;5.296;2022-10-31T00:34:23;10.7;;;7.4;;
64022;SDS011;50264;52.088;5.296;2022-10-31T00:35:59;10.9;;;7.2;;
64022;SDS011;50264;52.088;5.296;2022-10-31T00:37:37;14.2;;;7.9;;
64022;SDS011;50264;52.088;5.296;2022-10-31T00:40:49;13.5;;;8.1;;
64022;SDS011;50264;52.088;5.296;2022-10-31T00:42:26;10.4;;;7.7;;
64022;SDS011;50264;52.088;5.296;2022-10-31T00:44:03;9.6;;;7.6;;
64022;SDS011;50264;52.088;5.296;2022-10-31T00:47:16;13.3;;;7.9;;
64022;SDS011;50264;52.088;5.296;2022-10-31T00:48:53;10.6;;;7.6;;
64022;SDS011;50264;52.088;5.296;2022-10-31T00:50:29;15.5;;;8.31;;
64022;SDS011;50264;52.088;5.296;2022-10-31T00:53:41;12.7;;;7.7;;
64022;SDS011;50264;52.088;5.296;2022-10-31T00:55:17;13.8;;;8.31;;
64022;SDS011;50264;52.088;5.296;2022-10-31T00:56:54;14.3;;;8.31;;
64022;SDS011;50264;52.088;5.296;2022-10-31T00:58:30;11.2;;;7.3;;
64022;SDS011;50264;52.088;5.296;2022-10-31T01:01:44;14.3;;;8.0;;
64022;SDS011;50264;52.088;5.296;2022-10-31T01:03:20;12.0;;;8.2;;
64022;SDS011;50264;52.088;5.296;2022-10-31T01:04:57;16.4;;;8.0;;
64022;SDS011;50264;52.088;5.296;2022-10-31T01:08:10;15.4;;;7.8;;
64022;SDS011;50264;52.088;5.296;2022-10-31T01:09:46;14.6;;;7.9;;
64022;SDS011;50264;52.088;5.296;2022-10-31T01:11:22;16.3;;;8.5;;
64022;SDS011;50264;52.088;5.296;2022-10-31T01:14:35;13.0;;;8.0;;
64022;SDS011;50264;52.088;5.296;2022-10-31T01:16:12;17.2;;;8.6;;
64022;SDS011;50264;52.088;5.296;2022-10-31T01:17:51;16.9;;;8.81;;
64022;SDS011;50264;52.088;5.296;2022-10-31T01:19:27;14.4;;;8.1;;
64022;SDS011;50264;52.088;5.296;2022-10-31T01:22:43;14.3;;;7.8;;
64022;SDS011;50264;52.088;5.296;2022-10-31T01:24:19;10.5;;;8.1;;
64022;SDS011;50264;52.088;5.296;2022-10-31T01:26:00;9.5;;;6.7;;
64022;SDS011;50264;52.088;5.296;2022-10-31T01:29:19;15.0;;;8.31;;
64022;SDS011;50264;52.088;5.296;2022-10-31T01:30:55;15.6;;;8.2;;
64022;SDS011;50264;52.088;5.296;2022-10-31T01:32:35;11.7;;;7.7;;
64022;SDS011;50264;52.088;5.296;2022-10-31T01:34:12;15.9;;;7.9;;
64022;SDS011;50264;52.088;5.296;2022-10-31T01:37:28;18.8;;;8.4;;
64022;SDS011;50264;52.088;5.296;2022-10-31T01:39:07;12.8;;;7.5;;
64022;SDS011;50264;52.088;5.296;2022-10-31T01:40:46;13.9;;;8.5;;
64022;SDS011;50264;52.088;5.296;2022-10-31T01:44:00;13.9;;;8.5;;
64022;SDS011;50264;52.088;5.296;2022-10-31T01:45:38;15.4;;;7.6;;
64022;SDS011;50264;52.088;5.296;2022-10-31T01:47:15;16.7;;;7.9;;
64022;SDS011;50264;52.088;5.296;2022-10-31T01:48:56;16.7;;;7.9;;
64022;SDS011;50264;52.088;5.296;2022-10-31T01:52:16;14.7;;;7.9;;
64022;SDS011;50264;52.088;5.296;2022-10-31T01:54:02;15.1;;;8.81;;
64022;SDS011;50264;52.088;5.296;2022-10-31T01:55:42;16.5;;;9.9;;
64022;SDS011;50264;52.088;5.296;2022-10-31T01:57:21;15.0;;;8.31;;
64022;SDS011;50264;52.088;5.296;2022-10-31T02:00:37;14.1;;;8.2;;
64022;SDS011;50264;52.088;5.296;2022-10-31T02:02:14;12.5;;;8.71;;
64022;SDS011;50264;52.088;5.296;2022-10-31T02:03:54;15.4;;;8.71;;
64022;SDS011;50264;52.088;5.296;2022-10-31T02:05:31;12.1;;;8.4;;
64022;SDS011;50264;52.088;5.296;2022-10-31T02:08:50;14.0;;;8.31;;
64022;SDS011;50264;52.088;5.296;2022-10-31T02:10:27;20.9;;;8.9;;
64022;SDS011;50264;52.088;5.296;2022-10-31T02:12:06;16.61;;;9.71;;
64022;SDS011;50264;52.088;5.296;2022-10-31T02:15:24;13.1;;;8.0;;
64022;SDS011;50264;52.088;5.296;2022-10-31T02:17:00;16.0;;;8.5;;
64022;SDS011;50264;52.088;5.296;2022-10-31T02:18:36;16.9;;;9.31;;
64022;SDS011;50264;52.088;5.296;2022-10-31T02:20:14;15.3;;;8.31;;
64022;SDS011;50264;52.088;5.296;2022-10-31T02:23:50;14.4;;;9.4;;
64022;SDS011;50264;52.088;5.296;2022-10-31T02:26:50;15.4;;;9.81;;
64022;SDS011;50264;52.088;5.296;2022-10-31T02:29:18;10.9;;;8.81;;
64022;SDS011;50264;52.088;5.296;2022-10-31T02:32:12;16.11;;;9.21;;
64022;SDS011;50264;52.088;5.296;2022-10-31T02:33:55;18.5;;;9.0;;
64022;SDS011;50264;52.088;5.296;2022-10-31T02:35:42;10.4;;;7.8;;
64022;SDS011;50264;52.088;5.296;2022-10-31T02:37:31;14.7;;;8.5;;
64022;SDS011;50264;52.088;5.296;2022-10-31T02:39:22;13.9;;;8.71;;
64022;SDS011;50264;52.088;5.296;2022-10-31T02:41:04;18.2;;;9.21;;
64022;SDS011;50264;52.088;5.296;2022-10-31T02:44:35;11.5;;;8.9;;
64022;SDS011;50264;52.088;5.296;2022-10-31T02:46:19;11.8;;;9.1;;
64022;SDS011;50264;52.088;5.296;2022-10-31T02:48:06;15.6;;;8.4;;
64022;SDS011;50264;52.088;5.296;2022-10-31T02:49:48;12.9;;;8.6;;
64022;SDS011;50264;52.088;5.296;2022-10-31T02:51:32;18.41;;;9.21;;
64022;SDS011;50264;52.088;5.296;2022-10-31T02:54:44;15.9;;;9.0;;
64022;SDS011;50264;52.088;5.296;2022-10-31T02:56:23;14.5;;;8.5;;
64022;SDS011;50264;52.088;5.296;2022-10-31T02:58:00;11.4;;;7.9;;
64022;SDS011;50264;52.088;5.296;2022-10-31T03:01:33;13.3;;;8.5;;
64022;SDS011;50264;52.088;5.296;2022-10-31T03:03:49;10.5;;;8.4;;
64022;SDS011;50264;52.088;5.296;2022-10-31T03:05:41;14.0;;;9.21;;
64022;SDS011;50264;52.088;5.296;2022-10-31T03:07:29;13.9;;;8.6;;
64022;SDS011;50264;52.088;5.296;2022-10-31T03:09:19;17.2;;;10.4;;
64022;SDS011;50264;52.088;5.296;2022-10-31T03:11:01;16.8;;;9.6;;
64022;SDS011;50264;52.088;5.296;2022-10-31T03:12:43;12.6;;;8.9;;
64022;SDS011;50264;52.088;5.296;2022-10-31T03:14:29;21.7;;;9.1;;
64022;SDS011;50264;52.088;5.296;2022-10-31T03:17:57;14.2;;;8.6;;
64022;SDS011;50264;52.088;5.296;2022-10-31T03:19:40;13.5;;;8.6;;
64022;SDS011;50264;52.088;5.296;2022-10-31T03:21:21;12.6;;;9.21;;
64022;SDS011;50264;52.088;5.296;2022-10-31T03:23:04;11.9;;;9.31;;
64022;SDS011;50264;52.088;5.296;2022-10-31T03:26:23;14.1;;;8.71;;
64022;SDS011;50264;52.088;5.296;2022-10-31T03:28:01;16.11;;;8.6;;
64022;SDS011;50264;52.088;5.296;2022-10-31T03:29:42;16.2;;;10.0;;
64022;SDS011;50264;52.088;5.296;2022-10-31T03:31:22;14.6;;;9.6;;
64022;SDS011;50264;52.088;5.296;2022-10-31T03:34:50;13.8;;;9.0;;
64022;SDS011;50264;52.088;5.296;2022-10-31T03:36:32;14.6;;;9.21;;
64022;SDS011;50264;52.088;5.296;2022-10-31T03:38:11;14.6;;;9.21;;
64022;SDS011;50264;52.088;5.296;2022-10-31T03:39:50;13.5;;;8.9;;
64022;SDS011;50264;52.088;5.296;2022-10-31T03:43:16;15.6;;;8.5;;
64022;SDS011;50264;52.088;5.296;2022-10-31T03:44:57;17.2;;;9.1;;
64022;SDS011;50264;52.088;5.296;2022-10-31T03:46:40;15.5;;;9.21;;
64022;SDS011;50264;52.088;5.296;2022-10-31T03:48:18;10.7;;;8.1;;
64022;SDS011;50264;52.088;5.296;2022-10-31T03:51:34;14.7;;;9.31;;
64022;SDS011;50264;52.088;5.296;2022-10-31T03:53:19;14.7;;;8.5;;
64022;SDS011;50264;52.088;5.296;2022-10-31T03:55:04;14.7;;;9.31;;
64022;SDS011;50264;52.088;5.296;2022-10-31T03:56:49;15.8;;;8.31;;
64022;SDS011;50264;52.088;5.296;2022-10-31T03:58:31;19.41;;;8.6;;
64022;SDS011;50264;52.088;5.296;2022-10-31T04:01:51;10.7;;;7.6;;
64022;SDS011;50264;52.088;5.296;2022-10-31T04:03:37;20.9;;;8.2;;
64022;SDS011;50264;52.088;5.296;2022-10-31T04:05:15;15.3;;;8.9;;
64022;SDS011;50264;52.088;5.296;2022-10-31T04:06:53;13.6;;;9.21;;
64022;SDS011;50264;52.088;5.296;2022-10-31T04:10:16;17.0;;;9.81;;
64022;SDS011;50264;52.088;5.296;2022-10-31T04:11:55;14.8;;;10.7;;
64022;SDS011;50264;52.088;5.296;2022-10-31T04:13:35;14.6;;;9.9;;
64022;SDS011;50264;52.088;5.296;2022-10-31T04:15:15;15.7;;;11.0;;
64022;SDS011;50264;52.088;5.296;2022-10-31T04:18:28;16.3;;;11.8;;
64022;SDS011;50264;52.088;5.296;2022-10-31T04:20:05;17.3;;;11.8;;
64022;SDS011;50264;52.088;5.296;2022-10-31T04:21:43;20.5;;;11.5;;
64022;SDS011;50264;52.088;5.296;2022-10-31T04:25:00;17.8;;;10.1;;
64022;SDS011;50264;52.088;5.296;2022-10-31T04:26:36;17.2;;;10.3;;
64022;SDS011;50264;52.088;5.296;2022-10-31T04:28:13;17.41;;;9.81;;
64022;SDS011;50264;52.088;5.296;2022-10-31T04:29:49;13.9;;;9.31;;
64022;SDS011;50264;52.088;5.296;2022-10-31T04:33:01;16.61;;;9.71;;
64022;SDS011;50264;52.088;5.296;2022-10-31T04:34:37;16.7;;;10.5;;
64022;SDS011;50264;52.088;5.296;2022-10-31T04:36:14;21.0;;;10.1;;
64022;SDS011;50264;52.088;5.296;2022-10-31T04:39:26;18.8;;;9.5;;
64022;SDS011;50264;52.088;5.296;2022-10-31T04:41:02;13.8;;;9.31;;
64022;SDS011;50264;52.088;5.296;2022-10-31T04:42:38;16.4;;;10.0;;
64022;SDS011;50264;52.088;5.296;2022-10-31T04:45:51;18.2;;;11.4;;
64022;SDS011;50264;52.088;5.296;2022-10-31T04:47:27;14.8;;;10.21;;
64022;SDS011;50264;52.088;5.296;2022-10-31T04:49:03;27.5;;;11.1;;
64022;SDS011;50264;52.088;5.296;2022-10-31T04:52:16;20.2;;;10.9;;
64022;SDS011;50264;52.088;5.296;2022-10-31T04:53:52;18.3;;;9.71;;
64022;SDS011;50264;52.088;5.296;2022-10-31T04:55:29;18.61;;;10.7;;
64022;SDS011;50264;52.088;5.296;2022-10-31T04:57:06;15.1;;;10.7;;
64022;SDS011;50264;52.088;5.296;2022-10-31T05:00:18;14.8;;;10.5;;
64022;SDS011;50264;52.088;5.296;2022-10-31T05:01:57;15.8;;;10.5;;
64022;SDS011;50264;52.088;5.296;2022-10-31T05:03:33;16.2;;;10.9;;
64022;SDS011;50264;52.088;5.296;2022-10-31T05:06:46;13.5;;;10.4;;
64022;SDS011;50264;52.088;5.296;2022-10-31T05:08:22;18.0;;;11.4;;
64022;SDS011;50264;52.088;5.296;2022-10-31T05:09:58;16.9;;;10.8;;
64022;SDS011;50264;52.088;5.296;2022-10-31T05:13:10;17.8;;;10.6;;
64022;SDS011;50264;52.088;5.296;2022-10-31T05:14:46;20.41;;;10.4;;
64022;SDS011;50264;52.088;5.296;2022-10-31T05:16:23;22.2;;;11.2;;
64022;SDS011;50264;52.088;5.296;2022-10-31T05:17:59;14.7;;;10.9;;
64022;SDS011;50264;52.088;5.296;2022-10-31T05:21:12;17.11;;;11.3;;
64022;SDS011;50264;52.088;5.296;2022-10-31T05:22:49;16.0;;;11.0;;
64022;SDS011;50264;52.088;5.296;2022-10-31T05:24:26;16.5;;;11.4;;
64022;SDS011;50264;52.088;5.296;2022-10-31T05:27:40;16.5;;;11.1;;
64022;SDS011;50264;52.088;5.296;2022-10-31T05:29:17;16.0;;;10.8;;
64022;SDS011;50264;52.088;5.296;2022-10-31T05:30:53;16.61;;;10.4;;
64022;SDS011;50264;52.088;5.296;2022-10-31T05:34:12;17.5;;;11.3;;
64022;SDS011;50264;52.088;5.296;2022-10-31T05:35:48;20.5;;;11.6;;
64022;SDS011;50264;52.088;5.296;2022-10-31T05:37:25;14.0;;;10.5;;
64022;SDS011;50264;52.088;5.296;2022-10-31T05:39:01;15.0;;;10.8;;
64022;SDS011;50264;52.088;5.296;2022-10-31T05:42:14;19.11;;;11.2;;
64022;SDS011;50264;52.088;5.296;2022-10-31T05:43:51;19.7;;;11.4;;
64022;SDS011;50264;52.088;5.296;2022-10-31T05:45:28;21.3;;;11.1;;
64022;SDS011;50264;52.088;5.296;2022-10-31T05:48:41;16.3;;;11.0;;
64022;SDS011;50264;52.088;5.296;2022-10-31T05:50:17;17.41;;;11.4;;
64022;SDS011;50264;52.088;5.296;2022-10-31T05:51:54;15.3;;;11.2;;
64022;SDS011;50264;52.088;5.296;2022-10-31T05:53:30;14.6;;;10.6;;
64022;SDS011;50264;52.088;5.296;2022-10-31T05:56:44;18.3;;;11.9;;
64022;SDS011;50264;52.088;5.296;2022-10-31T05:58:20;17.5;;;12.0;;
64022;SDS011;50264;52.088;5.296;2022-10-31T05:59:56;18.61;;;12.0;;
64022;SDS011;50264;52.088;5.296;2022-10-31T06:03:09;25.5;;;11.8;;
64022;SDS011;50264;52.088;5.296;2022-10-31T06:04:45;15.3;;;11.2;;
64022;SDS011;50264;52.088;5.296;2022-10-31T06:06:22;14.1;;;11.0;;
64022;SDS011;50264;52.088;5.296;2022-10-31T06:09:34;24.8;;;11.5;;
64022;SDS011;50264;52.088;5.296;2022-10-31T06:11:10;16.0;;;12.0;;
64022;SDS011;50264;52.088;5.296;2022-10-31T06:12:46;19.11;;;13.7;;
64022;SDS011;50264;52.088;5.296;2022-10-31T06:14:23;19.11;;;12.1;;
64022;SDS011;50264;52.088;5.296;2022-10-31T06:17:36;20.2;;;12.3;;
64022;SDS011;50264;52.088;5.296;2022-10-31T06:19:12;25.6;;;13.7;;
64022;SDS011;50264;52.088;5.296;2022-10-31T06:20:48;18.11;;;12.3;;
64022;SDS011;50264;52.088;5.296;2022-10-31T06:24:02;23.7;;;12.9;;
64022;SDS011;50264;52.088;5.296;2022-10-31T06:25:38;23.7;;;12.9;;
64022;SDS011;50264;52.088;5.296;2022-10-31T06:27:15;21.1;;;13.2;;
64022;SDS011;50264;52.088;5.296;2022-10-31T06:30:27;20.2;;;14.0;;
64022;SDS011;50264;52.088;5.296;2022-10-31T06:32:03;18.11;;;12.3;;
64022;SDS011;50264;52.088;5.296;2022-10-31T06:33:40;22.8;;;12.3;;
64022;SDS011;50264;52.088;5.296;2022-10-31T06:35:17;15.4;;;12.3;;
64022;SDS011;50264;52.088;5.296;2022-10-31T06:38:29;17.7;;;12.1;;
64022;SDS011;50264;52.088;5.296;2022-10-31T06:40:05;17.2;;;13.4;;
64022;SDS011;50264;52.088;5.296;2022-10-31T06:41:42;24.5;;;13.8;;
64022;SDS011;50264;52.088;5.296;2022-10-31T06:44:55;17.3;;;12.4;;
64022;SDS011;50264;52.088;5.296;2022-10-31T06:46:32;26.8;;;13.8;;
64022;SDS011;50264;52.088;5.296;2022-10-31T06:48:08;16.61;;;11.9;;
64022;SDS011;50264;52.088;5.296;2022-10-31T06:51:20;18.5;;;14.0;;
64022;SDS011;50264;52.088;5.296;2022-10-31T06:52:57;20.6;;;14.5;;
64022;SDS011;50264;52.088;5.296;2022-10-31T06:54:34;19.5;;;13.5;;
64022;SDS011;50264;52.088;5.296;2022-10-31T06:57:49;21.1;;;12.6;;
64022;SDS011;50264;52.088;5.296;2022-10-31T06:59:26;18.91;;;13.7;;
64022;SDS011;50264;52.088;5.296;2022-10-31T07:01:02;21.5;;;13.3;;
64022;SDS011;50264;52.088;5.296;2022-10-31T07:02:38;16.61;;;12.2;;
64022;SDS011;50264;52.088;5.296;2022-10-31T07:05:50;20.9;;;14.0;;
64022;SDS011;50264;52.088;5.296;2022-10-31T07:07:27;25.3;;;14.2;;
64022;SDS011;50264;52.088;5.296;2022-10-31T07:09:03;23.0;;;13.7;;
64022;SDS011;50264;52.088;5.296;2022-10-31T07:12:18;22.7;;;14.5;;
64022;SDS011;50264;52.088;5.296;2022-10-31T07:13:54;20.9;;;13.1;;
64022;SDS011;50264;52.088;5.296;2022-10-31T07:15:33;18.2;;;13.3;;
64022;SDS011;50264;52.088;5.296;2022-10-31T07:17:13;24.3;;;13.6;;
64022;SDS011;50264;52.088;5.296;2022-10-31T07:20:27;18.61;;;12.7;;
64022;SDS011;50264;52.088;5.296;2022-10-31T07:22:03;19.8;;;12.5;;
64022;SDS011;50264;52.088;5.296;2022-10-31T07:23:39;17.8;;;12.8;;
64022;SDS011;50264;52.088;5.296;2022-10-31T07:26:51;23.1;;;12.7;;
64022;SDS011;50264;52.088;5.296;2022-10-31T07:28:28;20.8;;;11.5;;
64022;SDS011;50264;52.088;5.296;2022-10-31T07:30:08;18.8;;;12.6;;
64022;SDS011;50264;52.088;5.296;2022-10-31T07:31:48;18.0;;;12.6;;
64022;SDS011;50264;52.088;5.296;2022-10-31T07:35:02;25.8;;;13.7;;
64022;SDS011;50264;52.088;5.296;2022-10-31T07:36:38;24.0;;;14.2;;
64022;SDS011;50264;52.088;5.296;2022-10-31T07:38:14;21.6;;;13.1;;
64022;SDS011;50264;52.088;5.296;2022-10-31T07:41:27;22.8;;;13.3;;
64022;SDS011;50264;52.088;5.296;2022-10-31T07:43:04;21.5;;;13.2;;
64022;SDS011;50264;52.088;5.296;2022-10-31T07:44:41;22.5;;;13.9;;
64022;SDS011;50264;52.088;5.296;2022-10-31T07:47:53;17.2;;;12.5;;
64022;SDS011;50264;52.088;5.296;2022-10-31T07:49:30;21.0;;;13.3;;
64022;SDS011;50264;52.088;5.296;2022-10-31T07:51:06;24.6;;;12.5;;
64022;SDS011;50264;52.088;5.296;2022-10-31T07:52:42;19.7;;;12.5;;
64022;SDS011;50264;52.088;5.296;2022-10-31T07:55:56;25.3;;;13.2;;
64022;SDS011;50264;52.088;5.296;2022-10-31T07:57:32;20.9;;;12.5;;
64022;SDS011;50264;52.088;5.296;2022-10-31T07:59:08;20.41;;;12.4;;
64022;SDS011;50264;52.088;5.296;2022-10-31T08:02:22;20.5;;;12.6;;
64022;SDS011;50264;52.088;5.296;2022-10-31T08:03:59;19.91;;;12.4;;
64022;SDS011;50264;52.088;5.296;2022-10-31T08:05:36;19.61;;;12.7;;
64022;SDS011;50264;52.088;5.296;2022-10-31T08:08:49;26.5;;;13.8;;
64022;SDS011;50264;52.088;5.296;2022-10-31T08:10:25;20.3;;;13.3;;
64022;SDS011;50264;52.088;5.296;2022-10-31T08:12:03;19.11;;;13.4;;
64022;SDS011;50264;52.088;5.296;2022-10-31T08:13:40;22.7;;;14.1;;
64022;SDS011;50264;52.088;5.296;2022-10-31T08:16:52;23.9;;;14.9;;
64022;SDS011;50264;52.088;5.296;2022-10-31T08:18:29;24.4;;;14.4;;
64022;SDS011;50264;52.088;5.296;2022-10-31T08:20:06;22.6;;;13.9;;
64022;SDS011;50264;52.088;5.296;2022-10-31T08:23:19;20.9;;;13.8;;
64022;SDS011;50264;52.088;5.296;2022-10-31T08:24:56;23.7;;;14.6;;
64022;SDS011;50264;52.088;5.296;2022-10-31T08:26:32;27.3;;;13.5;;
64022;SDS011;50264;52.088;5.296;2022-10-31T08:29:47;16.2;;;13.0;;
64022;SDS011;50264;52.088;5.296;2022-10-31T08:31:25;22.1;;;12.8;;
64022;SDS011;50264;52.088;5.296;2022-10-31T08:33:03;21.7;;;13.4;;
64022;SDS011;50264;52.088;5.296;2022-10-31T08:34:41;21.8;;;13.8;;
64022;SDS011;50264;52.088;5.296;2022-10-31T08:37:54;25.4;;;15.0;;
64022;SDS011;50264;52.088;5.296;2022-10-31T08:39:31;21.8;;;13.5;;
64022;SDS011;50264;52.088;5.296;2022-10-31T08:41:07;20.3;;;13.9;;
64022;SDS011;50264;52.088;5.296;2022-10-31T08:44:20;28.1;;;13.6;;
64022;SDS011;50264;52.088;5.296;2022-10-31T08:45:57;19.11;;;13.3;;
64022;SDS011;50264;52.088;5.296;2022-10-31T08:47:33;23.5;;;14.9;;
64022;SDS011;50264;52.088;5.296;2022-10-31T08:50:45;21.7;;;15.6;;
64022;SDS011;50264;52.088;5.296;2022-10-31T08:52:23;19.8;;;14.9;;
64022;SDS011;50264;52.088;5.296;2022-10-31T08:53:59;23.0;;;15.0;;
64022;SDS011;50264;52.088;5.296;2022-10-31T08:55:36;26.7;;;13.8;;
64022;SDS011;50264;52.088;5.296;2022-10-31T09:00:28;26.2;;;13.9;;
64022;SDS011;50264;52.088;5.296;2022-10-31T09:02:04;26.3;;;14.5;;
64022;SDS011;50264;52.088;5.296;2022-10-31T09:05:16;23.4;;;14.8;;
64022;SDS011;50264;52.088;5.296;2022-10-31T09:06:53;23.0;;;14.4;;
64022;SDS011;50264;52.088;5.296;2022-10-31T09:08:29;22.8;;;15.0;;
64022;SDS011;50264;52.088;5.296;2022-10-31T09:10:07;23.5;;;15.0;;
64022;SDS011;50264;52.088;5.296;2022-10-31T09:13:20;26.3;;;14.7;;
64022;SDS011;50264;52.088;5.296;2022-10-31T09:14:56;27.1;;;15.5;;
64022;SDS011;50264;52.088;5.296;2022-10-31T09:16:33;25.8;;;16.8;;
64022;SDS011;50264;52.088;5.296;2022-10-31T09:19:46;26.8;;;17.11;;
64022;SDS011;50264;52.088;5.296;2022-10-31T09:21:22;22.5;;;14.2;;
64022;SDS011;50264;52.088;5.296;2022-10-31T09:22:59;31.4;;;19.41;;
64022;SDS011;50264;52.088;5.296;2022-10-31T09:26:14;21.3;;;15.1;;
64022;SDS011;50264;52.088;5.296;2022-10-31T09:27:50;26.0;;;16.5;;
64022;SDS011;50264;52.088;5.296;2022-10-31T09:29:26;26.6;;;16.61;;
64022;SDS011;50264;52.088;5.296;2022-10-31T09:31:02;24.0;;;15.1;;
64022;SDS011;50264;52.088;5.296;2022-10-31T09:34:14;24.8;;;15.5;;
64022;SDS011;50264;52.088;5.296;2022-10-31T09:35:51;26.5;;;16.11;;
64022;SDS011;50264;52.088;5.296;2022-10-31T09:37:27;25.6;;;16.11;;
64022;SDS011;50264;52.088;5.296;2022-10-31T09:40:39;30.5;;;17.11;;
64022;SDS011;50264;52.088;5.296;2022-10-31T09:42:29;21.7;;;16.0;;
64022;SDS011;50264;52.088;5.296;2022-10-31T09:44:25;25.7;;;15.4;;
64022;SDS011;50264;52.088;5.296;2022-10-31T09:46:14;23.7;;;15.8;;
64022;SDS011;50264;52.088;5.296;2022-10-31T09:48:05;24.8;;;15.4;;
64022;SDS011;50264;52.088;5.296;2022-10-31T09:50:14;23.6;;;15.6;;
64022;SDS011;50264;52.088;5.296;2022-10-31T09:51:57;24.6;;;15.8;;
64022;SDS011;50264;52.088;5.296;2022-10-31T09:57:16;30.7;;;17.7;;
64022;SDS011;50264;52.088;5.296;2022-10-31T09:59:01;28.0;;;14.9;;
64022;SDS011;50264;52.088;5.296;2022-10-31T10:00:40;27.3;;;16.9;;
64022;SDS011;50264;52.088;5.296;2022-10-31T10:04:01;22.8;;;14.5;;
64022;SDS011;50264;52.088;5.296;2022-10-31T10:05:51;24.3;;;15.0;;
64022;SDS011;50264;52.088;5.296;2022-10-31T10:07:37;23.8;;;14.3;;
64022;SDS011;50264;52.088;5.296;2022-10-31T10:09:20;27.2;;;14.5;;
64022;SDS011;50264;52.088;5.296;2022-10-31T10:11:05;24.4;;;14.4;;
64022;SDS011;50264;52.088;5.296;2022-10-31T10:13:06;22.7;;;13.1;;
64022;SDS011;50264;52.088;5.296;2022-10-31T10:15:16;19.91;;;12.1;;
64022;SDS011;50264;52.088;5.296;2022-10-31T10:18:05;23.6;;;13.3;;
64022;SDS011;50264;52.088;5.296;2022-10-31T10:21:51;25.0;;;13.0;;
64022;SDS011;50264;52.088;5.296;2022-10-31T10:23:43;16.5;;;11.9;;
64022;SDS011;50264;52.088;5.296;2022-10-31T10:25:33;23.5;;;13.3;;
64022;SDS011;50264;52.088;5.296;2022-10-31T10:29:01;16.2;;;11.4;;
64022;SDS011;50264;52.088;5.296;2022-10-31T10:30:54;18.0;;;12.6;;
64022;SDS011;50264;52.088;5.296;2022-10-31T10:32:40;24.0;;;13.1;;
64022;SDS011;50264;52.088;5.296;2022-10-31T10:34:19;17.7;;;12.2;;
64022;SDS011;50264;52.088;5.296;2022-10-31T10:36:03;15.9;;;12.5;;
64022;SDS011;50264;52.088;5.296;2022-10-31T10:39:25;20.5;;;12.5;;
64022;SDS011;50264;52.088;5.296;2022-10-31T10:41:10;20.8;;;12.1;;
64022;SDS011;50264;52.088;5.296;2022-10-31T10:43:26;15.5;;;12.2;;
64022;SDS011;50264;52.088;5.296;2022-10-31T10:48:02;16.8;;;12.1;;
64022;SDS011;50264;52.088;5.296;2022-10-31T10:49:43;20.11;;;12.1;;
64022;SDS011;50264;52.088;5.296;2022-10-31T10:51:27;20.0;;;12.4;;
64022;SDS011;50264;52.088;5.296;2022-10-31T10:53:24;15.3;;;12.2;;
64022;SDS011;50264;52.088;5.296;2022-10-31T10:55:15;19.0;;;12.2;;
64022;SDS011;50264;52.088;5.296;2022-10-31T10:57:02;20.3;;;13.3;;
64022;SDS011;50264;52.088;5.296;2022-10-31T11:00:29;20.3;;;13.8;;
64022;SDS011;50264;52.088;5.296;2022-10-31T11:02:15;19.61;;;12.1;;
64022;SDS011;50264;52.088;5.296;2022-10-31T11:03:59;27.6;;;13.8;;
64022;SDS011;50264;52.088;5.296;2022-10-31T11:05:39;22.2;;;13.3;;
64022;SDS011;50264;52.088;5.296;2022-10-31T11:07:22;21.9;;;14.7;;
64022;SDS011;50264;52.088;5.296;2022-10-31T11:10:45;25.7;;;14.6;;
64022;SDS011;50264;52.088;5.296;2022-10-31T11:12:33;22.8;;;14.8;;
64022;SDS011;50264;52.088;5.296;2022-10-31T11:14:11;29.3;;;16.61;;
64022;SDS011;50264;52.088;5.296;2022-10-31T11:15:51;25.4;;;15.8;;
64022;SDS011;50264;52.088;5.296;2022-10-31T11:19:17;30.4;;;17.11;;
64022;SDS011;50264;52.088;5.296;2022-10-31T11:21:03;25.2;;;16.11;;
64022;SDS011;50264;52.088;5.296;2022-10-31T11:22:41;28.3;;;14.9;;
64022;SDS011;50264;52.088;5.296;2022-10-31T11:24:19;28.5;;;16.5;;
64022;SDS011;50264;52.088;5.296;2022-10-31T11:27:36;25.8;;;15.0;;
64022;SDS011;50264;52.088;5.296;2022-10-31T11:29:13;23.4;;;15.6;;
64022;SDS011;50264;52.088;5.296;2022-10-31T11:30:52;24.6;;;16.2;;
64022;SDS011;50264;52.088;5.296;2022-10-31T11:32:33;26.8;;;15.4;;
64022;SDS011;50264;52.088;5.296;2022-10-31T11:35:54;25.4;;;15.2;;
64022;SDS011;50264;52.088;5.296;2022-10-31T11:37:32;25.2;;;15.5;;
64022;SDS011;50264;52.088;5.296;2022-10-31T11:39:15;34.6;;;16.4;;
64022;SDS011;50264;52.088;5.296;2022-10-31T11:40:56;28.5;;;16.8;;
64022;SDS011;50264;52.088;5.296;2022-10-31T11:44:18;32.9;;;18.2;;
64022;SDS011;50264;52.088;5.296;2022-10-31T11:45:58;30.8;;;16.7;;
64022;SDS011;50264;52.088;5.296;2022-10-31T11:47:36;30.9;;;17.7;;
64022;SDS011;50264;52.088;5.296;2022-10-31T11:49:14;28.4;;;16.8;;
64022;SDS011;50264;52.088;5.296;2022-10-31T11:52:33;38.71;;;18.8;;
64022;SDS011;50264;52.088;5.296;2022-10-31T11:54:15;29.0;;;17.41;;
64022;SDS011;50264;52.088;5.296;2022-10-31T11:56:03;29.1;;;17.8;;
64022;SDS011;50264;52.088;5.296;2022-10-31T11:57:47;37.1;;;18.11;;
64022;SDS011;50264;52.088;5.296;2022-10-31T12:01:05;26.5;;;16.2;;
64022;SDS011;50264;52.088;5.296;2022-10-31T12:02:42;28.1;;;16.8;;
64022;SDS011;50264;52.088;5.296;2022-10-31T12:04:18;32.6;;;18.3;;
64022;SDS011;50264;52.088;5.296;2022-10-31T12:06:05;31.3;;;17.91;;
64022;SDS011;50264;52.088;5.296;2022-10-31T12:09:24;35.4;;;18.61;;
64022;SDS011;50264;52.088;5.296;2022-10-31T12:11:07;31.6;;;17.8;;
64022;SDS011;50264;52.088;5.296;2022-10-31T12:13:08;32.3;;;18.3;;
64022;SDS011;50264;52.088;5.296;2022-10-31T12:15:17;32.5;;;19.3;;
64022;SDS011;50264;52.088;5.296;2022-10-31T12:17:25;28.0;;;18.61;;
64022;SDS011;50264;52.088;5.296;2022-10-31T12:19:13;32.6;;;17.11;;
64022;SDS011;50264;52.088;5.296;2022-10-31T12:21:04;34.4;;;19.41;;
64022;SDS011;50264;52.088;5.296;2022-10-31T12:22:55;32.8;;;18.7;;
64022;SDS011;50264;52.088;5.296;2022-10-31T12:24:44;27.0;;;17.61;;
64022;SDS011;50264;52.088;5.296;2022-10-31T12:28:28;31.4;;;20.41;;
64022;SDS011;50264;52.088;5.296;2022-10-31T12:30:21;37.5;;;20.11;;
64022;SDS011;50264;52.088;5.296;2022-10-31T12:32:10;30.9;;;18.3;;
64022;SDS011;50264;52.088;5.296;2022-10-31T12:34:05;33.9;;;19.2;;
64022;SDS011;50264;52.088;5.296;2022-10-31T12:36:10;28.4;;;17.7;;
64022;SDS011;50264;52.088;5.296;2022-10-31T12:38:04;34.31;;;19.5;;
64022;SDS011;50264;52.088;5.296;2022-10-31T12:40:28;36.81;;;21.7;;
64022;SDS011;50264;52.088;5.296;2022-10-31T12:42:22;32.4;;;20.11;;
64022;SDS011;50264;52.088;5.296;2022-10-31T12:44:19;35.0;;;19.3;;
64022;SDS011;50264;52.088;5.296;2022-10-31T12:46:19;41.9;;;22.6;;